sensor_id;sensor_type;location;lat;lon;timestamp;P1;durP1;ratioP1;P2;durP2;ratioP2
5129;SDS011;2583;50.946;6.954;2022-11-27T00:01:08;9.77;;;4.47;;
5129;SDS011;2583;50.946;6.954;2022-11-27T00:03:39;13.13;;;4.47;;
5129;SDS011;2583;50.946;6.954;2022-11-27T00:06:09;11.47;;;4.70;;
5129;SDS011;2583;50.946;6.954;2022-11-27T00:08:38;4.80;;;3.80;;
5129;SDS011;2583;50.946;6.954;2022-11-27T00:11:08;8.70;;;3.80;;
5129;SDS011;2583;50.946;6.954;2022-11-27T00:13:38;11.37;;;3.97;;
5129;SDS011;2583;50.946;6.954;2022-11-27T00:16:05;8.77;;;4.30;;
5129;SDS011;2583;50.946;6.954;2022-11-27T00:18:33;5.60;;;3.87;;
5129;SDS011;2583;50.946;6.954;2022-11-27T00:21:01;9.53;;;4.60;;
5129;SDS011;2583;50.946;6.954;2022-11-27T00:23:33;6.23;;;4.20;;
5129;SDS011;2583;50.946;6.954;2022-11-27T00:26:00;5.53;;;3.10;;
5129;SDS011;2583;50.946;6.954;2022-11-27T00:28:28;10.00;;;3.70;;
5129;SDS011;2583;50.946;6.954;2022-11-27T00:31:03;9.40;;;3.87;;
5129;SDS011;2583;50.946;6.954;2022-11-27T00:34:00;10.03;;;3.80;;
5129;SDS011;2583;50.946;6.954;2022-11-27T00:36:29;5.43;;;3.20;;
5129;SDS011;2583;50.946;6.954;2022-11-27T00:38:57;8.90;;;3.60;;
5129;SDS011;2583;50.946;6.954;2022-11-27T00:41:25;8.23;;;3.63;;
5129;SDS011;2583;50.946;6.954;2022-11-27T00:43:53;16.00;;;3.80;;
5129;SDS011;2583;50.946;6.954;2022-11-27T00:46:21;8.10;;;3.37;;
5129;SDS011;2583;50.946;6.954;2022-11-27T00:48:54;6.37;;;4.07;;
5129;SDS011;2583;50.946;6.954;2022-11-27T00:51:22;5.83;;;3.70;;
5129;SDS011;2583;50.946;6.954;2022-11-27T00:53:50;7.90;;;3.70;;
5129;SDS011;2583;50.946;6.954;2022-11-27T00:56:19;8.30;;;3.27;;
5129;SDS011;2583;50.946;6.954;2022-11-27T00:58:48;8.47;;;3.63;;
5129;SDS011;2583;50.946;6.954;2022-11-27T01:01:17;8.83;;;3.17;;
5129;SDS011;2583;50.946;6.954;2022-11-27T01:03:46;5.13;;;3.20;;
5129;SDS011;2583;50.946;6.954;2022-11-27T01:06:13;5.60;;;4.30;;
5129;SDS011;2583;50.946;6.954;2022-11-27T01:08:42;7.00;;;3.30;;
5129;SDS011;2583;50.946;6.954;2022-11-27T01:11:12;4.90;;;2.90;;
5129;SDS011;2583;50.946;6.954;2022-11-27T01:13:41;12.13;;;2.70;;
5129;SDS011;2583;50.946;6.954;2022-11-27T01:16:09;4.27;;;3.00;;
5129;SDS011;2583;50.946;6.954;2022-11-27T01:18:39;9.30;;;3.00;;
5129;SDS011;2583;50.946;6.954;2022-11-27T01:21:08;5.13;;;2.77;;
5129;SDS011;2583;50.946;6.954;2022-11-27T01:23:36;6.17;;;2.63;;
5129;SDS011;2583;50.946;6.954;2022-11-27T01:26:03;7.47;;;3.40;;
5129;SDS011;2583;50.946;6.954;2022-11-27T01:28:33;5.77;;;2.80;;
5129;SDS011;2583;50.946;6.954;2022-11-27T01:31:09;4.00;;;2.97;;
5129;SDS011;2583;50.946;6.954;2022-11-27T01:33:38;7.80;;;3.23;;
5129;SDS011;2583;50.946;6.954;2022-11-27T01:36:06;11.40;;;3.30;;
5129;SDS011;2583;50.946;6.954;2022-11-27T01:38:33;7.33;;;2.83;;
5129;SDS011;2583;50.946;6.954;2022-11-27T01:41:02;5.50;;;3.10;;
5129;SDS011;2583;50.946;6.954;2022-11-27T01:46:24;7.70;;;2.83;;
5129;SDS011;2583;50.946;6.954;2022-11-27T01:49:25;13.80;;;3.20;;
5129;SDS011;2583;50.946;6.954;2022-11-27T01:54:39;2.90;;;2.60;;
5129;SDS011;2583;50.946;6.954;2022-11-27T01:57:12;9.30;;;3.03;;
5129;SDS011;2583;50.946;6.954;2022-11-27T01:59:41;5.67;;;3.07;;
5129;SDS011;2583;50.946;6.954;2022-11-27T02:02:09;7.23;;;3.47;;
5129;SDS011;2583;50.946;6.954;2022-11-27T02:04:35;3.90;;;3.30;;
5129;SDS011;2583;50.946;6.954;2022-11-27T02:07:02;5.93;;;3.27;;
5129;SDS011;2583;50.946;6.954;2022-11-27T02:09:29;7.43;;;4.00;;
5129;SDS011;2583;50.946;6.954;2022-11-27T02:12:10;7.60;;;3.50;;
5129;SDS011;2583;50.946;6.954;2022-11-27T02:17:42;6.37;;;3.47;;
5129;SDS011;2583;50.946;6.954;2022-11-27T02:20:26;8.73;;;4.47;;
5129;SDS011;2583;50.946;6.954;2022-11-27T02:29:05;9.23;;;4.70;;
5129;SDS011;2583;50.946;6.954;2022-11-27T02:37:30;8.30;;;5.27;;
5129;SDS011;2583;50.946;6.954;2022-11-27T02:42:40;9.57;;;6.60;;
5129;SDS011;2583;50.946;6.954;2022-11-27T02:45:30;9.20;;;6.13;;
5129;SDS011;2583;50.946;6.954;2022-11-27T02:48:01;11.90;;;6.00;;
5129;SDS011;2583;50.946;6.954;2022-11-27T02:50:29;9.40;;;6.03;;
5129;SDS011;2583;50.946;6.954;2022-11-27T02:53:00;14.00;;;7.03;;
5129;SDS011;2583;50.946;6.954;2022-11-27T02:55:32;13.40;;;7.30;;
5129;SDS011;2583;50.946;6.954;2022-11-27T02:58:02;11.10;;;6.90;;
5129;SDS011;2583;50.946;6.954;2022-11-27T03:00:34;12.07;;;7.20;;
5129;SDS011;2583;50.946;6.954;2022-11-27T03:03:03;10.07;;;7.10;;
5129;SDS011;2583;50.946;6.954;2022-11-27T03:05:33;14.33;;;7.60;;
5129;SDS011;2583;50.946;6.954;2022-11-27T03:08:06;12.97;;;8.40;;
5129;SDS011;2583;50.946;6.954;2022-11-27T03:10:47;15.27;;;7.67;;
5129;SDS011;2583;50.946;6.954;2022-11-27T03:13:37;16.20;;;9.20;;
5129;SDS011;2583;50.946;6.954;2022-11-27T03:19:06;16.80;;;9.27;;
5129;SDS011;2583;50.946;6.954;2022-11-27T03:22:12;18.37;;;8.80;;
5129;SDS011;2583;50.946;6.954;2022-11-27T03:24:40;9.83;;;8.13;;
5129;SDS011;2583;50.946;6.954;2022-11-27T03:27:07;15.77;;;9.70;;
5129;SDS011;2583;50.946;6.954;2022-11-27T03:29:46;24.13;;;10.47;;
5129;SDS011;2583;50.946;6.954;2022-11-27T03:32:16;14.70;;;10.97;;
5129;SDS011;2583;50.946;6.954;2022-11-27T03:34:44;12.70;;;8.70;;
5129;SDS011;2583;50.946;6.954;2022-11-27T03:37:12;16.00;;;9.50;;
5129;SDS011;2583;50.946;6.954;2022-11-27T03:39:39;15.40;;;10.27;;
5129;SDS011;2583;50.946;6.954;2022-11-27T03:45:00;15.13;;;9.60;;
5129;SDS011;2583;50.946;6.954;2022-11-27T03:50:47;21.27;;;10.23;;
5129;SDS011;2583;50.946;6.954;2022-11-27T03:53:36;17.77;;;10.47;;
5129;SDS011;2583;50.946;6.954;2022-11-27T03:58:47;25.40;;;10.27;;
5129;SDS011;2583;50.946;6.954;2022-11-27T04:01:21;21.40;;;10.63;;
5129;SDS011;2583;50.946;6.954;2022-11-27T04:03:50;19.70;;;11.83;;
5129;SDS011;2583;50.946;6.954;2022-11-27T04:06:17;15.27;;;10.00;;
5129;SDS011;2583;50.946;6.954;2022-11-27T04:08:44;19.00;;;10.10;;
5129;SDS011;2583;50.946;6.954;2022-11-27T04:11:12;15.40;;;9.87;;
5129;SDS011;2583;50.946;6.954;2022-11-27T04:13:40;12.07;;;9.20;;
5129;SDS011;2583;50.946;6.954;2022-11-27T04:16:07;17.60;;;9.93;;
5129;SDS011;2583;50.946;6.954;2022-11-27T04:18:34;17.07;;;9.90;;
5129;SDS011;2583;50.946;6.954;2022-11-27T04:21:02;13.87;;;10.10;;
5129;SDS011;2583;50.946;6.954;2022-11-27T04:23:29;16.80;;;10.57;;
5129;SDS011;2583;50.946;6.954;2022-11-27T04:25:55;13.03;;;9.33;;
5129;SDS011;2583;50.946;6.954;2022-11-27T04:28:22;17.13;;;10.30;;
5129;SDS011;2583;50.946;6.954;2022-11-27T04:30:49;15.50;;;10.47;;
5129;SDS011;2583;50.946;6.954;2022-11-27T04:33:18;14.90;;;9.53;;
5129;SDS011;2583;50.946;6.954;2022-11-27T04:35:44;13.33;;;9.40;;
5129;SDS011;2583;50.946;6.954;2022-11-27T04:38:11;10.47;;;9.37;;
5129;SDS011;2583;50.946;6.954;2022-11-27T04:40:38;13.37;;;9.20;;
5129;SDS011;2583;50.946;6.954;2022-11-27T04:43:05;14.63;;;9.50;;
5129;SDS011;2583;50.946;6.954;2022-11-27T04:45:32;13.97;;;8.40;;
5129;SDS011;2583;50.946;6.954;2022-11-27T04:47:59;11.43;;;8.93;;
5129;SDS011;2583;50.946;6.954;2022-11-27T04:50:25;11.53;;;8.80;;
5129;SDS011;2583;50.946;6.954;2022-11-27T04:52:52;13.00;;;9.20;;
5129;SDS011;2583;50.946;6.954;2022-11-27T04:55:19;15.50;;;8.40;;
5129;SDS011;2583;50.946;6.954;2022-11-27T04:57:46;11.70;;;8.30;;
5129;SDS011;2583;50.946;6.954;2022-11-27T05:00:13;15.10;;;8.00;;
5129;SDS011;2583;50.946;6.954;2022-11-27T05:02:40;13.50;;;8.60;;
5129;SDS011;2583;50.946;6.954;2022-11-27T05:05:07;11.77;;;8.20;;
5129;SDS011;2583;50.946;6.954;2022-11-27T05:07:34;8.60;;;7.70;;
5129;SDS011;2583;50.946;6.954;2022-11-27T05:10:01;8.60;;;7.70;;
5129;SDS011;2583;50.946;6.954;2022-11-27T05:12:29;14.80;;;8.33;;
5129;SDS011;2583;50.946;6.954;2022-11-27T05:14:57;13.20;;;7.93;;
5129;SDS011;2583;50.946;6.954;2022-11-27T05:17:29;12.17;;;8.17;;
5129;SDS011;2583;50.946;6.954;2022-11-27T05:19:56;13.90;;;7.70;;
5129;SDS011;2583;50.946;6.954;2022-11-27T05:22:22;9.80;;;7.50;;
5129;SDS011;2583;50.946;6.954;2022-11-27T05:24:49;7.30;;;6.53;;
5129;SDS011;2583;50.946;6.954;2022-11-27T05:27:16;15.07;;;7.07;;
5129;SDS011;2583;50.946;6.954;2022-11-27T05:29:42;11.80;;;7.50;;
5129;SDS011;2583;50.946;6.954;2022-11-27T05:32:09;12.30;;;6.00;;
5129;SDS011;2583;50.946;6.954;2022-11-27T05:34:36;13.07;;;6.77;;
5129;SDS011;2583;50.946;6.954;2022-11-27T05:37:03;6.90;;;6.20;;
5129;SDS011;2583;50.946;6.954;2022-11-27T05:39:30;10.57;;;6.13;;
5129;SDS011;2583;50.946;6.954;2022-11-27T05:41:57;10.97;;;6.70;;
5129;SDS011;2583;50.946;6.954;2022-11-27T05:44:25;10.30;;;6.63;;
5129;SDS011;2583;50.946;6.954;2022-11-27T05:46:52;10.80;;;5.90;;
5129;SDS011;2583;50.946;6.954;2022-11-27T05:49:18;8.40;;;6.23;;
5129;SDS011;2583;50.946;6.954;2022-11-27T05:51:45;9.50;;;6.63;;
5129;SDS011;2583;50.946;6.954;2022-11-27T05:54:16;6.27;;;5.67;;
5129;SDS011;2583;50.946;6.954;2022-11-27T05:56:43;11.10;;;6.37;;
5129;SDS011;2583;50.946;6.954;2022-11-27T05:59:10;9.70;;;6.20;;
5129;SDS011;2583;50.946;6.954;2022-11-27T06:01:37;8.53;;;5.90;;
5129;SDS011;2583;50.946;6.954;2022-11-27T06:04:04;5.87;;;5.27;;
5129;SDS011;2583;50.946;6.954;2022-11-27T06:06:31;11.07;;;5.83;;
5129;SDS011;2583;50.946;6.954;2022-11-27T06:08:58;6.00;;;5.50;;
5129;SDS011;2583;50.946;6.954;2022-11-27T06:11:25;12.23;;;6.00;;
5129;SDS011;2583;50.946;6.954;2022-11-27T06:13:52;9.40;;;6.10;;
5129;SDS011;2583;50.946;6.954;2022-11-27T06:16:20;12.80;;;5.80;;
5129;SDS011;2583;50.946;6.954;2022-11-27T06:18:51;11.10;;;5.90;;
5129;SDS011;2583;50.946;6.954;2022-11-27T06:21:20;7.13;;;6.43;;
5129;SDS011;2583;50.946;6.954;2022-11-27T06:23:48;11.90;;;5.70;;
5129;SDS011;2583;50.946;6.954;2022-11-27T06:26:20;7.83;;;6.00;;
5129;SDS011;2583;50.946;6.954;2022-11-27T06:28:49;10.00;;;7.13;;
5129;SDS011;2583;50.946;6.954;2022-11-27T06:31:17;8.53;;;5.80;;
5129;SDS011;2583;50.946;6.954;2022-11-27T06:33:46;11.40;;;6.47;;
5129;SDS011;2583;50.946;6.954;2022-11-27T06:36:13;11.47;;;5.70;;
5129;SDS011;2583;50.946;6.954;2022-11-27T06:38:41;8.90;;;5.73;;
5129;SDS011;2583;50.946;6.954;2022-11-27T06:41:09;6.10;;;5.47;;
5129;SDS011;2583;50.946;6.954;2022-11-27T06:43:38;9.73;;;5.97;;
5129;SDS011;2583;50.946;6.954;2022-11-27T06:46:05;6.73;;;5.37;;
5129;SDS011;2583;50.946;6.954;2022-11-27T06:48:33;9.60;;;6.33;;
5129;SDS011;2583;50.946;6.954;2022-11-27T06:51:00;7.47;;;6.10;;
5129;SDS011;2583;50.946;6.954;2022-11-27T06:53:29;9.53;;;6.40;;
5129;SDS011;2583;50.946;6.954;2022-11-27T06:55:56;5.70;;;5.10;;
5129;SDS011;2583;50.946;6.954;2022-11-27T06:58:23;6.10;;;5.50;;
5129;SDS011;2583;50.946;6.954;2022-11-27T07:00:59;8.97;;;6.10;;
5129;SDS011;2583;50.946;6.954;2022-11-27T07:03:28;7.70;;;5.47;;
5129;SDS011;2583;50.946;6.954;2022-11-27T07:05:57;10.20;;;6.00;;
5129;SDS011;2583;50.946;6.954;2022-11-27T07:08:24;6.30;;;4.73;;
5129;SDS011;2583;50.946;6.954;2022-11-27T07:10:51;8.90;;;6.00;;
5129;SDS011;2583;50.946;6.954;2022-11-27T07:13:18;5.60;;;5.03;;
5129;SDS011;2583;50.946;6.954;2022-11-27T07:15:45;6.77;;;5.37;;
5129;SDS011;2583;50.946;6.954;2022-11-27T07:18:12;11.53;;;6.10;;
5129;SDS011;2583;50.946;6.954;2022-11-27T07:20:39;7.23;;;5.10;;
5129;SDS011;2583;50.946;6.954;2022-11-27T07:23:06;12.03;;;5.90;;
5129;SDS011;2583;50.946;6.954;2022-11-27T07:25:33;7.27;;;4.97;;
5129;SDS011;2583;50.946;6.954;2022-11-27T07:28:02;6.63;;;4.73;;
5129;SDS011;2583;50.946;6.954;2022-11-27T07:30:28;10.10;;;5.00;;
5129;SDS011;2583;50.946;6.954;2022-11-27T07:32:55;7.37;;;4.60;;
5129;SDS011;2583;50.946;6.954;2022-11-27T07:35:22;8.43;;;5.60;;
5129;SDS011;2583;50.946;6.954;2022-11-27T07:37:49;6.70;;;4.83;;
5129;SDS011;2583;50.946;6.954;2022-11-27T07:40:16;9.33;;;5.30;;
5129;SDS011;2583;50.946;6.954;2022-11-27T07:42:43;5.10;;;4.50;;
5129;SDS011;2583;50.946;6.954;2022-11-27T07:45:10;5.57;;;4.10;;
5129;SDS011;2583;50.946;6.954;2022-11-27T07:47:37;8.73;;;5.63;;
5129;SDS011;2583;50.946;6.954;2022-11-27T07:50:05;7.27;;;5.37;;
5129;SDS011;2583;50.946;6.954;2022-11-27T07:52:34;5.27;;;4.77;;
5129;SDS011;2583;50.946;6.954;2022-11-27T07:55:06;6.10;;;4.80;;
5129;SDS011;2583;50.946;6.954;2022-11-27T07:57:33;9.20;;;5.27;;
5129;SDS011;2583;50.946;6.954;2022-11-27T08:00:00;5.57;;;5.07;;
5129;SDS011;2583;50.946;6.954;2022-11-27T08:02:27;6.73;;;5.30;;
5129;SDS011;2583;50.946;6.954;2022-11-27T08:04:53;8.60;;;5.40;;
5129;SDS011;2583;50.946;6.954;2022-11-27T08:07:25;4.90;;;4.50;;
5129;SDS011;2583;50.946;6.954;2022-11-27T08:09:52;13.90;;;5.40;;
5129;SDS011;2583;50.946;6.954;2022-11-27T08:12:19;5.30;;;4.80;;
5129;SDS011;2583;50.946;6.954;2022-11-27T08:14:47;5.93;;;4.87;;
5129;SDS011;2583;50.946;6.954;2022-11-27T08:17:14;9.17;;;5.10;;
5129;SDS011;2583;50.946;6.954;2022-11-27T08:19:41;8.83;;;5.47;;
5129;SDS011;2583;50.946;6.954;2022-11-27T08:22:11;6.87;;;4.90;;
5129;SDS011;2583;50.946;6.954;2022-11-27T08:24:39;6.30;;;5.50;;
5129;SDS011;2583;50.946;6.954;2022-11-27T08:27:08;6.70;;;4.50;;
5129;SDS011;2583;50.946;6.954;2022-11-27T08:29:35;5.23;;;4.60;;
5129;SDS011;2583;50.946;6.954;2022-11-27T08:32:03;7.83;;;5.57;;
5129;SDS011;2583;50.946;6.954;2022-11-27T08:34:30;7.00;;;4.80;;
5129;SDS011;2583;50.946;6.954;2022-11-27T08:36:57;6.33;;;4.83;;
5129;SDS011;2583;50.946;6.954;2022-11-27T08:39:24;7.20;;;5.40;;
5129;SDS011;2583;50.946;6.954;2022-11-27T08:41:52;6.40;;;5.00;;
5129;SDS011;2583;50.946;6.954;2022-11-27T08:44:19;8.23;;;5.00;;
5129;SDS011;2583;50.946;6.954;2022-11-27T08:46:46;5.83;;;5.20;;
5129;SDS011;2583;50.946;6.954;2022-11-27T08:49:12;9.70;;;5.10;;
5129;SDS011;2583;50.946;6.954;2022-11-27T08:51:39;6.43;;;4.90;;
5129;SDS011;2583;50.946;6.954;2022-11-27T08:54:06;10.03;;;5.43;;
5129;SDS011;2583;50.946;6.954;2022-11-27T08:56:33;7.20;;;4.97;;
5129;SDS011;2583;50.946;6.954;2022-11-27T08:59:01;9.93;;;5.23;;
5129;SDS011;2583;50.946;6.954;2022-11-27T09:01:29;8.80;;;6.20;;
5129;SDS011;2583;50.946;6.954;2022-11-27T09:03:57;9.43;;;5.23;;
5129;SDS011;2583;50.946;6.954;2022-11-27T09:06:28;15.00;;;6.50;;
5129;SDS011;2583;50.946;6.954;2022-11-27T09:08:56;9.80;;;5.27;;
5129;SDS011;2583;50.946;6.954;2022-11-27T09:11:24;6.77;;;5.07;;
5129;SDS011;2583;50.946;6.954;2022-11-27T09:13:52;6.37;;;5.10;;
5129;SDS011;2583;50.946;6.954;2022-11-27T09:16:20;13.90;;;8.77;;
5129;SDS011;2583;50.946;6.954;2022-11-27T09:18:48;6.77;;;4.60;;
5129;SDS011;2583;50.946;6.954;2022-11-27T09:21:18;5.77;;;5.20;;
5129;SDS011;2583;50.946;6.954;2022-11-27T09:23:47;6.13;;;5.13;;
5129;SDS011;2583;50.946;6.954;2022-11-27T09:26:17;7.53;;;5.60;;
5129;SDS011;2583;50.946;6.954;2022-11-27T09:28:44;12.97;;;8.00;;
5129;SDS011;2583;50.946;6.954;2022-11-27T09:31:12;9.60;;;5.30;;
5129;SDS011;2583;50.946;6.954;2022-11-27T09:33:40;9.17;;;4.77;;
5129;SDS011;2583;50.946;6.954;2022-11-27T09:38:36;6.20;;;4.53;;
5129;SDS011;2583;50.946;6.954;2022-11-27T09:41:13;5.87;;;5.33;;
5129;SDS011;2583;50.946;6.954;2022-11-27T09:43:52;5.97;;;5.43;;
5129;SDS011;2583;50.946;6.954;2022-11-27T09:46:27;7.57;;;5.00;;
5129;SDS011;2583;50.946;6.954;2022-11-27T09:48:57;8.60;;;7.80;;
5129;SDS011;2583;50.946;6.954;2022-11-27T09:51:31;5.80;;;5.23;;
5129;SDS011;2583;50.946;6.954;2022-11-27T09:54:14;5.27;;;4.87;;
5129;SDS011;2583;50.946;6.954;2022-11-27T09:56:56;6.90;;;4.63;;
5129;SDS011;2583;50.946;6.954;2022-11-27T09:59:27;8.67;;;5.10;;
5129;SDS011;2583;50.946;6.954;2022-11-27T10:02:31;5.53;;;5.13;;
5129;SDS011;2583;50.946;6.954;2022-11-27T10:05:02;6.60;;;4.37;;
5129;SDS011;2583;50.946;6.954;2022-11-27T10:15:55;6.20;;;4.67;;
5129;SDS011;2583;50.946;6.954;2022-11-27T10:18:50;7.50;;;4.90;;
5129;SDS011;2583;50.946;6.954;2022-11-27T10:21:26;5.30;;;3.90;;
5129;SDS011;2583;50.946;6.954;2022-11-27T10:24:22;8.03;;;4.53;;
5129;SDS011;2583;50.946;6.954;2022-11-27T10:27:12;5.03;;;4.60;;
5129;SDS011;2583;50.946;6.954;2022-11-27T10:29:53;7.00;;;3.83;;
5129;SDS011;2583;50.946;6.954;2022-11-27T10:32:22;7.07;;;5.03;;
5129;SDS011;2583;50.946;6.954;2022-11-27T10:35:17;6.83;;;4.23;;
5129;SDS011;2583;50.946;6.954;2022-11-27T10:43:28;6.30;;;4.67;;
5129;SDS011;2583;50.946;6.954;2022-11-27T10:45:56;6.07;;;4.70;;
5129;SDS011;2583;50.946;6.954;2022-11-27T10:48:28;5.03;;;4.43;;
5129;SDS011;2583;50.946;6.954;2022-11-27T10:50:55;4.70;;;4.30;;
5129;SDS011;2583;50.946;6.954;2022-11-27T10:53:31;4.90;;;4.50;;
5129;SDS011;2583;50.946;6.954;2022-11-27T10:56:08;7.43;;;5.10;;
5129;SDS011;2583;50.946;6.954;2022-11-27T10:59:02;5.90;;;5.40;;
5129;SDS011;2583;50.946;6.954;2022-11-27T11:02:33;5.30;;;4.80;;
5129;SDS011;2583;50.946;6.954;2022-11-27T11:04:29;5.73;;;4.30;;
5129;SDS011;2583;50.946;6.954;2022-11-27T11:07:14;5.83;;;4.50;;
5129;SDS011;2583;50.946;6.954;2022-11-27T11:09:53;5.00;;;4.60;;
5129;SDS011;2583;50.946;6.954;2022-11-27T11:12:22;5.77;;;4.63;;
5129;SDS011;2583;50.946;6.954;2022-11-27T11:17:26;5.63;;;4.40;;
5129;SDS011;2583;50.946;6.954;2022-11-27T11:19:59;7.13;;;5.00;;
5129;SDS011;2583;50.946;6.954;2022-11-27T11:22:26;10.20;;;6.53;;
5129;SDS011;2583;50.946;6.954;2022-11-27T11:24:53;11.50;;;5.40;;
5129;SDS011;2583;50.946;6.954;2022-11-27T11:27:27;7.57;;;4.90;;
5129;SDS011;2583;50.946;6.954;2022-11-27T11:30:00;8.37;;;5.20;;
5129;SDS011;2583;50.946;6.954;2022-11-27T11:32:35;5.33;;;4.83;;
5129;SDS011;2583;50.946;6.954;2022-11-27T11:35:08;9.30;;;5.43;;
5129;SDS011;2583;50.946;6.954;2022-11-27T11:37:57;7.00;;;4.90;;
5129;SDS011;2583;50.946;6.954;2022-11-27T11:40:28;5.50;;;4.60;;
5129;SDS011;2583;50.946;6.954;2022-11-27T11:43:04;5.73;;;4.33;;
5129;SDS011;2583;50.946;6.954;2022-11-27T11:45:46;5.90;;;4.20;;
5129;SDS011;2583;50.946;6.954;2022-11-27T11:50:49;4.60;;;4.20;;
5129;SDS011;2583;50.946;6.954;2022-11-27T11:53:23;5.73;;;4.60;;
5129;SDS011;2583;50.946;6.954;2022-11-27T11:56:05;5.40;;;4.97;;
5129;SDS011;2583;50.946;6.954;2022-11-27T12:11:21;4.50;;;4.10;;
5129;SDS011;2583;50.946;6.954;2022-11-27T12:17:34;5.80;;;3.20;;
5129;SDS011;2583;50.946;6.954;2022-11-27T12:25:35;4.20;;;3.80;;
5129;SDS011;2583;50.946;6.954;2022-11-27T12:34:01;3.77;;;3.20;;
5129;SDS011;2583;50.946;6.954;2022-11-27T12:44:34;4.10;;;3.80;;
5129;SDS011;2583;50.946;6.954;2022-11-27T12:47:09;5.03;;;3.60;;
5129;SDS011;2583;50.946;6.954;2022-11-27T12:49:55;4.07;;;3.73;;
5129;SDS011;2583;50.946;6.954;2022-11-27T12:52:40;6.70;;;3.30;;
5129;SDS011;2583;50.946;6.954;2022-11-27T12:57:53;3.90;;;3.60;;
5129;SDS011;2583;50.946;6.954;2022-11-27T13:00:25;3.77;;;3.37;;
5129;SDS011;2583;50.946;6.954;2022-11-27T13:05:25;5.00;;;3.40;;
5129;SDS011;2583;50.946;6.954;2022-11-27T13:07:56;7.67;;;4.30;;
5129;SDS011;2583;50.946;6.954;2022-11-27T13:10:34;4.80;;;3.67;;
5129;SDS011;2583;50.946;6.954;2022-11-27T13:13:17;14.77;;;7.80;;
5129;SDS011;2583;50.946;6.954;2022-11-27T13:16:57;5.53;;;4.00;;
5129;SDS011;2583;50.946;6.954;2022-11-27T13:21:38;3.63;;;3.33;;
5129;SDS011;2583;50.946;6.954;2022-11-27T13:24:08;4.30;;;2.93;;
5129;SDS011;2583;50.946;6.954;2022-11-27T13:29:30;3.27;;;2.97;;
5129;SDS011;2583;50.946;6.954;2022-11-27T13:32:20;2.77;;;2.57;;
5129;SDS011;2583;50.946;6.954;2022-11-27T13:34:49;3.80;;;3.00;;
5129;SDS011;2583;50.946;6.954;2022-11-27T13:37:25;4.37;;;3.07;;
5129;SDS011;2583;50.946;6.954;2022-11-27T13:42:55;4.10;;;3.20;;
5129;SDS011;2583;50.946;6.954;2022-11-27T13:45:29;3.80;;;3.10;;
5129;SDS011;2583;50.946;6.954;2022-11-27T13:47:59;4.93;;;3.20;;
5129;SDS011;2583;50.946;6.954;2022-11-27T13:50:28;4.13;;;3.70;;
5129;SDS011;2583;50.946;6.954;2022-11-27T13:52:57;3.27;;;2.63;;
5129;SDS011;2583;50.946;6.954;2022-11-27T13:55:36;3.80;;;3.20;;
5129;SDS011;2583;50.946;6.954;2022-11-27T13:58:05;3.27;;;2.90;;
5129;SDS011;2583;50.946;6.954;2022-11-27T14:00:34;5.00;;;3.60;;
5129;SDS011;2583;50.946;6.954;2022-11-27T14:03:03;3.17;;;2.90;;
5129;SDS011;2583;50.946;6.954;2022-11-27T14:05:38;3.87;;;3.20;;
5129;SDS011;2583;50.946;6.954;2022-11-27T14:08:16;3.57;;;3.23;;
5129;SDS011;2583;50.946;6.954;2022-11-27T14:16:27;3.40;;;2.53;;
5129;SDS011;2583;50.946;6.954;2022-11-27T14:18:57;3.60;;;3.30;;
5129;SDS011;2583;50.946;6.954;2022-11-27T14:21:47;3.50;;;3.20;;
5129;SDS011;2583;50.946;6.954;2022-11-27T14:26:53;4.80;;;3.27;;
5129;SDS011;2583;50.946;6.954;2022-11-27T14:29:21;3.80;;;2.90;;
5129;SDS011;2583;50.946;6.954;2022-11-27T14:31:56;3.70;;;2.77;;
5129;SDS011;2583;50.946;6.954;2022-11-27T14:34:33;5.17;;;2.90;;
5129;SDS011;2583;50.946;6.954;2022-11-27T14:37:00;3.53;;;3.23;;
5129;SDS011;2583;50.946;6.954;2022-11-27T14:39:30;4.40;;;3.80;;
5129;SDS011;2583;50.946;6.954;2022-11-27T14:42:00;5.00;;;4.10;;
5129;SDS011;2583;50.946;6.954;2022-11-27T14:44:28;6.50;;;5.50;;
5129;SDS011;2583;50.946;6.954;2022-11-27T14:46:56;9.70;;;6.10;;
5129;SDS011;2583;50.946;6.954;2022-11-27T14:49:27;6.80;;;4.10;;
5129;SDS011;2583;50.946;6.954;2022-11-27T14:51:57;4.40;;;3.63;;
5129;SDS011;2583;50.946;6.954;2022-11-27T14:54:27;4.70;;;4.30;;
5129;SDS011;2583;50.946;6.954;2022-11-27T14:56:57;4.30;;;4.00;;
5129;SDS011;2583;50.946;6.954;2022-11-27T14:59:24;5.03;;;3.80;;
5129;SDS011;2583;50.946;6.954;2022-11-27T15:01:59;4.33;;;3.93;;
5129;SDS011;2583;50.946;6.954;2022-11-27T15:04:41;3.70;;;3.13;;
5129;SDS011;2583;50.946;6.954;2022-11-27T15:07:14;4.60;;;3.60;;
5129;SDS011;2583;50.946;6.954;2022-11-27T15:09:57;3.33;;;3.10;;
5129;SDS011;2583;50.946;6.954;2022-11-27T15:12:27;4.30;;;3.77;;
5129;SDS011;2583;50.946;6.954;2022-11-27T15:14:57;4.90;;;4.13;;
5129;SDS011;2583;50.946;6.954;2022-11-27T15:17:27;4.10;;;3.70;;
5129;SDS011;2583;50.946;6.954;2022-11-27T15:19:57;3.90;;;3.60;;
5129;SDS011;2583;50.946;6.954;2022-11-27T15:22:25;4.30;;;3.90;;
5129;SDS011;2583;50.946;6.954;2022-11-27T15:24:59;6.27;;;5.70;;
5129;SDS011;2583;50.946;6.954;2022-11-27T15:27:29;8.83;;;5.20;;
5129;SDS011;2583;50.946;6.954;2022-11-27T15:32:44;5.23;;;4.83;;
5129;SDS011;2583;50.946;6.954;2022-11-27T15:35:24;3.77;;;3.23;;
5129;SDS011;2583;50.946;6.954;2022-11-27T15:37:52;6.10;;;3.87;;
5129;SDS011;2583;50.946;6.954;2022-11-27T15:40:32;5.03;;;3.70;;
5129;SDS011;2583;50.946;6.954;2022-11-27T15:43:01;5.47;;;4.97;;
5129;SDS011;2583;50.946;6.954;2022-11-27T15:45:36;4.10;;;3.80;;
5129;SDS011;2583;50.946;6.954;2022-11-27T15:48:03;4.57;;;4.17;;
5129;SDS011;2583;50.946;6.954;2022-11-27T15:50:30;5.23;;;4.30;;
5129;SDS011;2583;50.946;6.954;2022-11-27T15:52:57;5.60;;;4.60;;
5129;SDS011;2583;50.946;6.954;2022-11-27T15:55:26;5.67;;;5.07;;
5129;SDS011;2583;50.946;6.954;2022-11-27T15:57:53;6.93;;;4.30;;
5129;SDS011;2583;50.946;6.954;2022-11-27T16:00:20;5.73;;;4.07;;
5129;SDS011;2583;50.946;6.954;2022-11-27T16:02:47;3.93;;;3.63;;
5129;SDS011;2583;50.946;6.954;2022-11-27T16:05:14;4.70;;;4.23;;
5129;SDS011;2583;50.946;6.954;2022-11-27T16:07:41;4.17;;;3.77;;
5129;SDS011;2583;50.946;6.954;2022-11-27T16:10:07;5.47;;;4.47;;
5129;SDS011;2583;50.946;6.954;2022-11-27T16:12:35;5.27;;;4.20;;
5129;SDS011;2583;50.946;6.954;2022-11-27T16:15:07;4.00;;;3.70;;
5129;SDS011;2583;50.946;6.954;2022-11-27T16:17:34;6.73;;;4.70;;
5129;SDS011;2583;50.946;6.954;2022-11-27T16:20:01;5.57;;;5.07;;
5129;SDS011;2583;50.946;6.954;2022-11-27T16:22:29;4.70;;;4.40;;
5129;SDS011;2583;50.946;6.954;2022-11-27T16:24:55;7.00;;;4.50;;
5129;SDS011;2583;50.946;6.954;2022-11-27T16:27:22;4.13;;;3.73;;
5129;SDS011;2583;50.946;6.954;2022-11-27T16:29:49;4.93;;;4.23;;
5129;SDS011;2583;50.946;6.954;2022-11-27T16:32:16;5.30;;;4.17;;
5129;SDS011;2583;50.946;6.954;2022-11-27T16:34:42;5.50;;;4.47;;
5129;SDS011;2583;50.946;6.954;2022-11-27T16:37:09;4.73;;;4.33;;
5129;SDS011;2583;50.946;6.954;2022-11-27T16:39:43;4.73;;;4.20;;
5129;SDS011;2583;50.946;6.954;2022-11-27T16:42:10;8.00;;;5.50;;
5129;SDS011;2583;50.946;6.954;2022-11-27T16:44:37;5.60;;;4.40;;
5129;SDS011;2583;50.946;6.954;2022-11-27T16:47:04;4.33;;;4.00;;
5129;SDS011;2583;50.946;6.954;2022-11-27T16:49:31;4.77;;;4.30;;
5129;SDS011;2583;50.946;6.954;2022-11-27T16:51:57;4.83;;;4.33;;
5129;SDS011;2583;50.946;6.954;2022-11-27T16:54:24;4.90;;;4.50;;
5129;SDS011;2583;50.946;6.954;2022-11-27T16:56:51;4.70;;;4.30;;
5129;SDS011;2583;50.946;6.954;2022-11-27T16:59:18;4.97;;;4.50;;
5129;SDS011;2583;50.946;6.954;2022-11-27T17:01:45;5.90;;;5.03;;
5129;SDS011;2583;50.946;6.954;2022-11-27T17:04:16;5.27;;;4.77;;
5129;SDS011;2583;50.946;6.954;2022-11-27T17:06:45;5.33;;;4.93;;
5129;SDS011;2583;50.946;6.954;2022-11-27T17:09:13;8.20;;;4.80;;
5129;SDS011;2583;50.946;6.954;2022-11-27T17:11:42;4.90;;;4.40;;
5129;SDS011;2583;50.946;6.954;2022-11-27T17:14:11;5.33;;;4.93;;
5129;SDS011;2583;50.946;6.954;2022-11-27T17:16:37;12.20;;;11.00;;
5129;SDS011;2583;50.946;6.954;2022-11-27T17:19:09;4.87;;;4.37;;
5129;SDS011;2583;50.946;6.954;2022-11-27T17:21:40;7.87;;;5.73;;
5129;SDS011;2583;50.946;6.954;2022-11-27T17:24:11;4.90;;;4.40;;
5129;SDS011;2583;50.946;6.954;2022-11-27T17:26:41;6.43;;;5.87;;
5129;SDS011;2583;50.946;6.954;2022-11-27T17:29:10;5.37;;;4.90;;
5129;SDS011;2583;50.946;6.954;2022-11-27T17:31:38;5.10;;;4.60;;